sensor_id;sensor_type;location;lat;lon;timestamp;temperature;humidity
46816;DHT22;32787;53.316;8.670;2023-03-31T00:00:26;11.10;87.30
46816;DHT22;32787;53.316;8.670;2023-03-31T00:02:52;11.10;87.40
46816;DHT22;32787;53.316;8.670;2023-03-31T00:05:24;11.10;87.50
46816;DHT22;32787;53.316;8.670;2023-03-31T00:07:56;11.10;87.40
46816;DHT22;32787;53.316;8.670;2023-03-31T00:10:30;11.20;87.10
46816;DHT22;32787;53.316;8.670;2023-03-31T00:13:00;11.10;86.90
46816;DHT22;32787;53.316;8.670;2023-03-31T00:15:26;11.10;87.10
46816;DHT22;32787;53.316;8.670;2023-03-31T00:17:52;11.10;87.00
46816;DHT22;32787;53.316;8.670;2023-03-31T00:20:18;11.10;86.90
46816;DHT22;32787;53.316;8.670;2023-03-31T00:22:44;11.10;87.20
46816;DHT22;32787;53.316;8.670;2023-03-31T00:25:13;11.20;86.90
46816;DHT22;32787;53.316;8.670;2023-03-31T00:27:43;11.10;86.90
46816;DHT22;32787;53.316;8.670;2023-03-31T00:30:10;11.20;87.00
46816;DHT22;32787;53.316;8.670;2023-03-31T00:32:37;11.10;86.80
46816;DHT22;32787;53.316;8.670;2023-03-31T00:35:03;11.20;87.00
46816;DHT22;32787;53.316;8.670;2023-03-31T00:37:29;11.20;86.70
46816;DHT22;32787;53.316;8.670;2023-03-31T00:39:55;11.20;86.90
46816;DHT22;32787;53.316;8.670;2023-03-31T00:42:21;11.10;87.00
46816;DHT22;32787;53.316;8.670;2023-03-31T00:45:27;11.10;86.90
46816;DHT22;32787;53.316;8.670;2023-03-31T00:48:06;11.20;87.10
46816;DHT22;32787;53.316;8.670;2023-03-31T00:50:41;11.10;86.90
46816;DHT22;32787;53.316;8.670;2023-03-31T00:53:11;11.20;86.60
46816;DHT22;32787;53.316;8.670;2023-03-31T00:55:47;11.10;86.80
46816;DHT22;32787;53.316;8.670;2023-03-31T00:58:15;11.20;86.90
46816;DHT22;32787;53.316;8.670;2023-03-31T01:00:46;11.20;87.10
46816;DHT22;32787;53.316;8.670;2023-03-31T01:03:13;11.20;87.00
46816;DHT22;32787;53.316;8.670;2023-03-31T01:05:46;11.20;86.70
46816;DHT22;32787;53.316;8.670;2023-03-31T01:08:15;11.30;86.90
46816;DHT22;32787;53.316;8.670;2023-03-31T01:10:47;11.20;87.00
46816;DHT22;32787;53.316;8.670;2023-03-31T01:13:15;11.20;86.90
46816;DHT22;32787;53.316;8.670;2023-03-31T01:15:42;11.30;86.70
46816;DHT22;32787;53.316;8.670;2023-03-31T01:18:09;11.30;86.60
46816;DHT22;32787;53.316;8.670;2023-03-31T01:31:42;11.30;86.80
46816;DHT22;32787;53.316;8.670;2023-03-31T01:34:41;11.10;86.90
46816;DHT22;32787;53.316;8.670;2023-03-31T01:46:36;11.00;87.50
46816;DHT22;32787;53.316;8.670;2023-03-31T01:49:18;11.00;87.30
46816;DHT22;32787;53.316;8.670;2023-03-31T01:51:59;11.00;87.40
46816;DHT22;32787;53.316;8.670;2023-03-31T01:54:38;11.00;87.40
46816;DHT22;32787;53.316;8.670;2023-03-31T01:57:16;11.10;87.10
46816;DHT22;32787;53.316;8.670;2023-03-31T02:00:10;11.10;87.30
46816;DHT22;32787;53.316;8.670;2023-03-31T02:02:47;11.20;87.20
46816;DHT22;32787;53.316;8.670;2023-03-31T02:05:20;11.10;87.10
46816;DHT22;32787;53.316;8.670;2023-03-31T02:08:00;11.10;87.20
46816;DHT22;32787;53.316;8.670;2023-03-31T02:10:30;11.00;87.40
46816;DHT22;32787;53.316;8.670;2023-03-31T02:12:59;10.80;87.40
46816;DHT22;32787;53.316;8.670;2023-03-31T02:15:27;10.80;87.60
46816;DHT22;32787;53.316;8.670;2023-03-31T02:17:57;10.80;87.60
46816;DHT22;32787;53.316;8.670;2023-03-31T02:20:26;10.70;87.50
46816;DHT22;32787;53.316;8.670;2023-03-31T02:22:54;10.60;87.70
46816;DHT22;32787;53.316;8.670;2023-03-31T02:25:30;10.50;87.90
46816;DHT22;32787;53.316;8.670;2023-03-31T02:28:04;10.40;88.30
46816;DHT22;32787;53.316;8.670;2023-03-31T02:30:45;10.50;88.10
46816;DHT22;32787;53.316;8.670;2023-03-31T02:33:13;10.30;88.10
46816;DHT22;32787;53.316;8.670;2023-03-31T02:35:40;10.00;88.40
46816;DHT22;32787;53.316;8.670;2023-03-31T02:38:05;9.90;89.20
46816;DHT22;32787;53.316;8.670;2023-03-31T02:40:31;9.90;89.30
46816;DHT22;32787;53.316;8.670;2023-03-31T02:42:57;9.90;89.50
46816;DHT22;32787;53.316;8.670;2023-03-31T02:48:01;10.30;88.90
46816;DHT22;32787;53.316;8.670;2023-03-31T02:50:34;10.40;89.00
46816;DHT22;32787;53.316;8.670;2023-03-31T02:53:22;10.60;88.60
46816;DHT22;32787;53.316;8.670;2023-03-31T02:56:16;10.60;88.50
46816;DHT22;32787;53.316;8.670;2023-03-31T03:01:49;10.70;88.60
46816;DHT22;32787;53.316;8.670;2023-03-31T03:07:12;10.90;88.00
46816;DHT22;32787;53.316;8.670;2023-03-31T03:15:47;10.90;87.90
46816;DHT22;32787;53.316;8.670;2023-03-31T03:18:14;10.80;88.10
46816;DHT22;32787;53.316;8.670;2023-03-31T03:20:43;10.80;88.30
46816;DHT22;32787;53.316;8.670;2023-03-31T03:23:14;11.00;88.20
46816;DHT22;32787;53.316;8.670;2023-03-31T03:25:40;11.00;87.70
46816;DHT22;32787;53.316;8.670;2023-03-31T03:28:06;10.90;87.90
46816;DHT22;32787;53.316;8.670;2023-03-31T03:30:31;10.90;88.20
46816;DHT22;32787;53.316;8.670;2023-03-31T03:32:57;11.00;88.30
46816;DHT22;32787;53.316;8.670;2023-03-31T03:35:23;11.10;88.10
46816;DHT22;32787;53.316;8.670;2023-03-31T03:37:49;11.10;87.80
46816;DHT22;32787;53.316;8.670;2023-03-31T03:40:14;11.30;87.90
46816;DHT22;32787;53.316;8.670;2023-03-31T03:42:40;11.30;87.30
46816;DHT22;32787;53.316;8.670;2023-03-31T03:45:06;11.20;87.60
46816;DHT22;32787;53.316;8.670;2023-03-31T03:47:32;11.30;87.50
46816;DHT22;32787;53.316;8.670;2023-03-31T03:49:58;11.30;87.50
46816;DHT22;32787;53.316;8.670;2023-03-31T03:52:23;11.10;87.50
46816;DHT22;32787;53.316;8.670;2023-03-31T03:54:49;11.10;87.80
46816;DHT22;32787;53.316;8.670;2023-03-31T03:57:14;11.10;87.80
46816;DHT22;32787;53.316;8.670;2023-03-31T03:59:40;11.00;87.60
46816;DHT22;32787;53.316;8.670;2023-03-31T04:02:06;11.10;87.70
46816;DHT22;32787;53.316;8.670;2023-03-31T04:04:32;11.10;87.60
46816;DHT22;32787;53.316;8.670;2023-03-31T04:06:57;11.10;87.60
46816;DHT22;32787;53.316;8.670;2023-03-31T04:09:23;11.20;87.50
46816;DHT22;32787;53.316;8.670;2023-03-31T04:11:49;11.10;87.40
46816;DHT22;32787;53.316;8.670;2023-03-31T04:14:14;11.10;87.60
46816;DHT22;32787;53.316;8.670;2023-03-31T04:16:40;11.20;87.30
46816;DHT22;32787;53.316;8.670;2023-03-31T04:19:07;11.20;87.30
46816;DHT22;32787;53.316;8.670;2023-03-31T04:21:32;11.10;87.60
46816;DHT22;32787;53.316;8.670;2023-03-31T04:24:01;11.10;87.40
46816;DHT22;32787;53.316;8.670;2023-03-31T04:26:30;11.20;87.10
46816;DHT22;32787;53.316;8.670;2023-03-31T04:29:06;11.10;87.00
46816;DHT22;32787;53.316;8.670;2023-03-31T04:31:32;10.90;87.80
46816;DHT22;32787;53.316;8.670;2023-03-31T04:33:58;11.00;87.50
46816;DHT22;32787;53.316;8.670;2023-03-31T04:36:31;11.10;87.20
46816;DHT22;32787;53.316;8.670;2023-03-31T04:38:58;11.00;87.60
46816;DHT22;32787;53.316;8.670;2023-03-31T04:41:24;11.00;87.40
46816;DHT22;32787;53.316;8.670;2023-03-31T04:43:52;10.90;87.50
46816;DHT22;32787;53.316;8.670;2023-03-31T04:46:18;11.00;87.20
46816;DHT22;32787;53.316;8.670;2023-03-31T04:48:44;11.00;87.10
46816;DHT22;32787;53.316;8.670;2023-03-31T04:51:10;10.90;87.20
46816;DHT22;32787;53.316;8.670;2023-03-31T04:53:36;10.90;87.40
46816;DHT22;32787;53.316;8.670;2023-03-31T04:56:02;10.90;87.40
46816;DHT22;32787;53.316;8.670;2023-03-31T04:58:28;10.90;87.50
46816;DHT22;32787;53.316;8.670;2023-03-31T05:00:54;10.80;87.80
46816;DHT22;32787;53.316;8.670;2023-03-31T05:03:19;10.70;88.10
46816;DHT22;32787;53.316;8.670;2023-03-31T05:05:45;10.90;87.80
46816;DHT22;32787;53.316;8.670;2023-03-31T05:08:11;10.90;87.80
46816;DHT22;32787;53.316;8.670;2023-03-31T05:10:37;10.80;87.50
46816;DHT22;32787;53.316;8.670;2023-03-31T05:13:02;10.70;87.80
46816;DHT22;32787;53.316;8.670;2023-03-31T05:15:28;10.70;87.70
46816;DHT22;32787;53.316;8.670;2023-03-31T05:17:53;10.50;88.00
46816;DHT22;32787;53.316;8.670;2023-03-31T05:20:20;10.50;88.10
46816;DHT22;32787;53.316;8.670;2023-03-31T05:22:46;10.30;88.40
46816;DHT22;32787;53.316;8.670;2023-03-31T05:25:12;10.20;88.70
46816;DHT22;32787;53.316;8.670;2023-03-31T05:27:47;10.10;89.00
46816;DHT22;32787;53.316;8.670;2023-03-31T05:30:14;10.30;89.30
46816;DHT22;32787;53.316;8.670;2023-03-31T05:32:39;10.30;89.30
46816;DHT22;32787;53.316;8.670;2023-03-31T05:35:05;10.20;89.00
46816;DHT22;32787;53.316;8.670;2023-03-31T05:37:32;10.30;89.20
46816;DHT22;32787;53.316;8.670;2023-03-31T05:39:57;10.40;88.50
46816;DHT22;32787;53.316;8.670;2023-03-31T05:42:23;10.40;88.70
46816;DHT22;32787;53.316;8.670;2023-03-31T05:44:49;10.50;88.30
46816;DHT22;32787;53.316;8.670;2023-03-31T05:47:15;10.50;88.50
46816;DHT22;32787;53.316;8.670;2023-03-31T05:49:41;10.60;88.50
46816;DHT22;32787;53.316;8.670;2023-03-31T05:52:07;10.70;88.30
46816;DHT22;32787;53.316;8.670;2023-03-31T05:54:33;10.80;88.10
46816;DHT22;32787;53.316;8.670;2023-03-31T05:56:59;10.80;87.80
46816;DHT22;32787;53.316;8.670;2023-03-31T05:59:24;10.90;87.50
46816;DHT22;32787;53.316;8.670;2023-03-31T06:01:50;10.80;87.90
46816;DHT22;32787;53.316;8.670;2023-03-31T06:04:16;10.90;87.70
46816;DHT22;32787;53.316;8.670;2023-03-31T06:06:42;10.90;87.40
46816;DHT22;32787;53.316;8.670;2023-03-31T06:09:09;10.80;87.70
46816;DHT22;32787;53.316;8.670;2023-03-31T06:11:37;10.80;87.80
46816;DHT22;32787;53.316;8.670;2023-03-31T06:14:03;10.60;88.60
46816;DHT22;32787;53.316;8.670;2023-03-31T06:16:29;10.50;89.00
46816;DHT22;32787;53.316;8.670;2023-03-31T06:18:54;10.30;89.50
46816;DHT22;32787;53.316;8.670;2023-03-31T06:21:20;10.50;89.50
46816;DHT22;32787;53.316;8.670;2023-03-31T06:23:46;10.30;89.80
46816;DHT22;32787;53.316;8.670;2023-03-31T06:26:14;10.20;90.10
46816;DHT22;32787;53.316;8.670;2023-03-31T06:28:42;10.30;90.60
46816;DHT22;32787;53.316;8.670;2023-03-31T06:31:09;10.20;90.30
46816;DHT22;32787;53.316;8.670;2023-03-31T06:33:38;10.20;90.50
46816;DHT22;32787;53.316;8.670;2023-03-31T06:36:05;10.10;90.80
46816;DHT22;32787;53.316;8.670;2023-03-31T06:38:35;10.20;91.20
46816;DHT22;32787;53.316;8.670;2023-03-31T06:41:01;10.20;90.90
46816;DHT22;32787;53.316;8.670;2023-03-31T06:43:27;10.10;91.30
46816;DHT22;32787;53.316;8.670;2023-03-31T06:45:53;10.30;91.30
46816;DHT22;32787;53.316;8.670;2023-03-31T06:48:19;10.30;91.30
46816;DHT22;32787;53.316;8.670;2023-03-31T06:50:45;10.20;91.30
46816;DHT22;32787;53.316;8.670;2023-03-31T06:53:11;10.30;91.60
46816;DHT22;32787;53.316;8.670;2023-03-31T06:55:37;10.40;91.30
46816;DHT22;32787;53.316;8.670;2023-03-31T06:58:03;10.20;91.40
46816;DHT22;32787;53.316;8.670;2023-03-31T07:00:29;10.30;91.60
46816;DHT22;32787;53.316;8.670;2023-03-31T07:02:55;10.30;91.70
46816;DHT22;32787;53.316;8.670;2023-03-31T07:05:21;10.30;91.70
46816;DHT22;32787;53.316;8.670;2023-03-31T07:07:58;10.30;91.80
46816;DHT22;32787;53.316;8.670;2023-03-31T07:10:27;10.30;92.10
46816;DHT22;32787;53.316;8.670;2023-03-31T07:12:53;10.30;92.00
46816;DHT22;32787;53.316;8.670;2023-03-31T07:15:18;10.30;91.90
46816;DHT22;32787;53.316;8.670;2023-03-31T07:17:44;10.30;91.90
46816;DHT22;32787;53.316;8.670;2023-03-31T07:20:11;10.30;91.90
46816;DHT22;32787;53.316;8.670;2023-03-31T07:22:38;10.30;91.90
46816;DHT22;32787;53.316;8.670;2023-03-31T07:25:07;10.30;92.10
46816;DHT22;32787;53.316;8.670;2023-03-31T07:27:33;10.30;92.30
46816;DHT22;32787;53.316;8.670;2023-03-31T07:29:58;10.30;92.20
46816;DHT22;32787;53.316;8.670;2023-03-31T07:32:24;10.40;92.30
46816;DHT22;32787;53.316;8.670;2023-03-31T07:34:49;10.40;92.00
46816;DHT22;32787;53.316;8.670;2023-03-31T07:37:15;10.30;92.00
46816;DHT22;32787;53.316;8.670;2023-03-31T07:39:41;10.30;92.40
46816;DHT22;32787;53.316;8.670;2023-03-31T07:42:07;10.30;92.50
46816;DHT22;32787;53.316;8.670;2023-03-31T07:44:33;10.50;92.30
46816;DHT22;32787;53.316;8.670;2023-03-31T07:46:59;10.70;92.40
46816;DHT22;32787;53.316;8.670;2023-03-31T07:49:29;10.80;91.90
46816;DHT22;32787;53.316;8.670;2023-03-31T07:51:55;10.90;91.40
46816;DHT22;32787;53.316;8.670;2023-03-31T07:54:20;10.90;91.10
46816;DHT22;32787;53.316;8.670;2023-03-31T07:56:46;11.00;91.40
46816;DHT22;32787;53.316;8.670;2023-03-31T07:59:11;11.00;91.50
46816;DHT22;32787;53.316;8.670;2023-03-31T08:01:37;11.10;91.40
46816;DHT22;32787;53.316;8.670;2023-03-31T08:04:03;11.10;91.20
46816;DHT22;32787;53.316;8.670;2023-03-31T08:06:28;11.20;91.20
46816;DHT22;32787;53.316;8.670;2023-03-31T08:08:55;11.10;90.80
46816;DHT22;32787;53.316;8.670;2023-03-31T08:11:21;11.10;91.00
46816;DHT22;32787;53.316;8.670;2023-03-31T08:13:47;11.00;91.00
46816;DHT22;32787;53.316;8.670;2023-03-31T08:16:12;11.00;91.30
46816;DHT22;32787;53.316;8.670;2023-03-31T08:18:38;11.10;91.30
46816;DHT22;32787;53.316;8.670;2023-03-31T08:21:04;11.20;91.10
46816;DHT22;32787;53.316;8.670;2023-03-31T08:23:29;11.10;91.30
46816;DHT22;32787;53.316;8.670;2023-03-31T08:26:16;11.20;91.10
46816;DHT22;32787;53.316;8.670;2023-03-31T08:28:46;11.50;90.70
46816;DHT22;32787;53.316;8.670;2023-03-31T08:31:15;11.50;90.60
46816;DHT22;32787;53.316;8.670;2023-03-31T08:33:42;11.70;90.50
46816;DHT22;32787;53.316;8.670;2023-03-31T08:36:08;11.80;90.50
46816;DHT22;32787;53.316;8.670;2023-03-31T08:38:36;11.70;90.60
46816;DHT22;32787;53.316;8.670;2023-03-31T08:41:11;11.70;90.40
46816;DHT22;32787;53.316;8.670;2023-03-31T08:43:44;11.60;90.60
46816;DHT22;32787;53.316;8.670;2023-03-31T08:46:12;11.60;90.40
46816;DHT22;32787;53.316;8.670;2023-03-31T08:48:41;11.60;90.40
46816;DHT22;32787;53.316;8.670;2023-03-31T08:51:31;11.80;90.10
46816;DHT22;32787;53.316;8.670;2023-03-31T08:54:15;11.70;89.70
46816;DHT22;32787;53.316;8.670;2023-03-31T08:56:43;11.70;90.00
46816;DHT22;32787;53.316;8.670;2023-03-31T09:07:15;11.60;90.20
46816;DHT22;32787;53.316;8.670;2023-03-31T09:15:35;11.60;90.50
46816;DHT22;32787;53.316;8.670;2023-03-31T09:18:18;11.50;90.70
46816;DHT22;32787;53.316;8.670;2023-03-31T09:20:49;11.60;90.60
46816;DHT22;32787;53.316;8.670;2023-03-31T09:23:26;11.50;90.50
46816;DHT22;32787;53.316;8.670;2023-03-31T09:25:55;11.50;90.00
46816;DHT22;32787;53.316;8.670;2023-03-31T09:28:35;11.40;90.10
46816;DHT22;32787;53.316;8.670;2023-03-31T09:31:13;11.30;90.40
46816;DHT22;32787;53.316;8.670;2023-03-31T09:33:44;11.20;90.90
46816;DHT22;32787;53.316;8.670;2023-03-31T09:36:18;11.40;90.70
46816;DHT22;32787;53.316;8.670;2023-03-31T09:38:47;11.30;90.50
46816;DHT22;32787;53.316;8.670;2023-03-31T09:41:14;11.30;90.60
46816;DHT22;32787;53.316;8.670;2023-03-31T09:43:42;11.30;91.20
46816;DHT22;32787;53.316;8.670;2023-03-31T09:46:30;11.30;90.90
46816;DHT22;32787;53.316;8.670;2023-03-31T09:49:05;11.30;91.20
46816;DHT22;32787;53.316;8.670;2023-03-31T09:51:34;11.40;91.20
46816;DHT22;32787;53.316;8.670;2023-03-31T09:54:24;11.40;91.10
46816;DHT22;32787;53.316;8.670;2023-03-31T09:56:54;11.40;90.90
46816;DHT22;32787;53.316;8.670;2023-03-31T09:59:30;11.30;91.10
46816;DHT22;32787;53.316;8.670;2023-03-31T10:01:59;11.20;91.30
46816;DHT22;32787;53.316;8.670;2023-03-31T10:04:31;11.10;91.30
46816;DHT22;32787;53.316;8.670;2023-03-31T10:06:58;11.00;91.40
46816;DHT22;32787;53.316;8.670;2023-03-31T10:09:27;10.90;91.80
46816;DHT22;32787;53.316;8.670;2023-03-31T10:12:02;11.10;92.10
46816;DHT22;32787;53.316;8.670;2023-03-31T10:14:39;11.10;92.20
46816;DHT22;32787;53.316;8.670;2023-03-31T10:17:06;11.10;92.30
46816;DHT22;32787;53.316;8.670;2023-03-31T10:19:34;11.30;92.20
46816;DHT22;32787;53.316;8.670;2023-03-31T10:25:17;11.40;92.00
46816;DHT22;32787;53.316;8.670;2023-03-31T10:27:47;11.50;91.70
46816;DHT22;32787;53.316;8.670;2023-03-31T10:30:20;11.80;91.50
46816;DHT22;32787;53.316;8.670;2023-03-31T10:32:45;12.10;91.40
46816;DHT22;32787;53.316;8.670;2023-03-31T10:35:25;12.30;90.80
46816;DHT22;32787;53.316;8.670;2023-03-31T10:38:03;12.40;90.40
46816;DHT22;32787;53.316;8.670;2023-03-31T10:40:31;12.50;90.40
46816;DHT22;32787;53.316;8.670;2023-03-31T10:43:15;12.50;90.10
46816;DHT22;32787;53.316;8.670;2023-03-31T10:45:52;12.40;89.80
46816;DHT22;32787;53.316;8.670;2023-03-31T10:50:51;12.40;90.00
46816;DHT22;32787;53.316;8.670;2023-03-31T10:53:17;12.70;89.60
46816;DHT22;32787;53.316;8.670;2023-03-31T11:07:06;13.00;88.10
46816;DHT22;32787;53.316;8.670;2023-03-31T11:09:45;13.00;88.10
46816;DHT22;32787;53.316;8.670;2023-03-31T11:12:29;12.70;88.10
46816;DHT22;32787;53.316;8.670;2023-03-31T11:15:04;13.00;88.70
46816;DHT22;32787;53.316;8.670;2023-03-31T11:31:42;13.20;87.50
46816;DHT22;32787;53.316;8.670;2023-03-31T11:37:41;12.90;87.90
46816;DHT22;32787;53.316;8.670;2023-03-31T11:40:33;12.80;88.00
46816;DHT22;32787;53.316;8.670;2023-03-31T11:43:09;12.80;88.40
46816;DHT22;32787;53.316;8.670;2023-03-31T11:45:52;12.90;88.50
46816;DHT22;32787;53.316;8.670;2023-03-31T11:51:04;13.20;87.80
46816;DHT22;32787;53.316;8.670;2023-03-31T11:53:34;13.20;87.50
46816;DHT22;32787;53.316;8.670;2023-03-31T11:56:01;13.30;87.40
46816;DHT22;32787;53.316;8.670;2023-03-31T11:58:35;13.40;87.60
46816;DHT22;32787;53.316;8.670;2023-03-31T12:01:16;13.40;86.40
46816;DHT22;32787;53.316;8.670;2023-03-31T12:06:16;13.30;87.60
46816;DHT22;32787;53.316;8.670;2023-03-31T12:11:45;13.60;87.80
46816;DHT22;32787;53.316;8.670;2023-03-31T12:17:04;13.50;87.20
46816;DHT22;32787;53.316;8.670;2023-03-31T12:22:21;13.30;87.00
46816;DHT22;32787;53.316;8.670;2023-03-31T12:24:48;13.10;86.90
46816;DHT22;32787;53.316;8.670;2023-03-31T12:30:02;12.60;87.70
46816;DHT22;32787;53.316;8.670;2023-03-31T12:32:35;12.30;88.30
46816;DHT22;32787;53.316;8.670;2023-03-31T12:35:04;12.10;88.80
46816;DHT22;32787;53.316;8.670;2023-03-31T12:46:23;12.20;89.30
46816;DHT22;32787;53.316;8.670;2023-03-31T12:48:59;12.00;89.50
46816;DHT22;32787;53.316;8.670;2023-03-31T12:54:53;12.10;89.70
46816;DHT22;32787;53.316;8.670;2023-03-31T12:57:23;12.30;90.00
46816;DHT22;32787;53.316;8.670;2023-03-31T13:00:19;12.40;89.90
46816;DHT22;32787;53.316;8.670;2023-03-31T13:02:46;12.30;89.60
46816;DHT22;32787;53.316;8.670;2023-03-31T13:08:08;12.80;90.30
46816;DHT22;32787;53.316;8.670;2023-03-31T13:10:55;12.90;90.00
46816;DHT22;32787;53.316;8.670;2023-03-31T13:13:22;12.80;89.10
46816;DHT22;32787;53.316;8.670;2023-03-31T13:15:55;12.60;88.90
46816;DHT22;32787;53.316;8.670;2023-03-31T13:18:22;12.60;89.20
46816;DHT22;32787;53.316;8.670;2023-03-31T13:20:59;12.60;88.90
46816;DHT22;32787;53.316;8.670;2023-03-31T13:23:25;12.50;88.70
46816;DHT22;32787;53.316;8.670;2023-03-31T13:25:55;12.50;89.30
46816;DHT22;32787;53.316;8.670;2023-03-31T13:30:58;12.50;89.50
46816;DHT22;32787;53.316;8.670;2023-03-31T13:33:46;12.50;89.10
46816;DHT22;32787;53.316;8.670;2023-03-31T14:02:03;12.30;88.90
46816;DHT22;32787;53.316;8.670;2023-03-31T14:07:45;12.60;88.80
46816;DHT22;32787;53.316;8.670;2023-03-31T14:10:32;12.60;88.70
46816;DHT22;32787;53.316;8.670;2023-03-31T14:13:14;12.60;88.20
46816;DHT22;32787;53.316;8.670;2023-03-31T14:15:48;12.70;88.40
46816;DHT22;32787;53.316;8.670;2023-03-31T14:18:20;12.70;88.50
46816;DHT22;32787;53.316;8.670;2023-03-31T14:21:20;12.60;88.60
46816;DHT22;32787;53.316;8.670;2023-03-31T14:24:11;12.70;88.50
46816;DHT22;32787;53.316;8.670;2023-03-31T14:32:56;12.50;88.40
46816;DHT22;32787;53.316;8.670;2023-03-31T14:35:52;12.50;89.00
46816;DHT22;32787;53.316;8.670;2023-03-31T14:38:21;12.40;89.30
46816;DHT22;32787;53.316;8.670;2023-03-31T14:40:50;12.40;89.00
46816;DHT22;32787;53.316;8.670;2023-03-31T14:43:24;12.60;88.90
46816;DHT22;32787;53.316;8.670;2023-03-31T14:45:58;12.50;88.90
46816;DHT22;32787;53.316;8.670;2023-03-31T14:48:23;12.60;89.20
46816;DHT22;32787;53.316;8.670;2023-03-31T14:50:56;12.60;88.70
46816;DHT22;32787;53.316;8.670;2023-03-31T14:53:24;12.70;88.10
46816;DHT22;32787;53.316;8.670;2023-03-31T14:55:56;12.80;87.80
46816;DHT22;32787;53.316;8.670;2023-03-31T14:58:31;12.80;87.00
46816;DHT22;32787;53.316;8.670;2023-03-31T15:01:01;12.80;87.40
46816;DHT22;32787;53.316;8.670;2023-03-31T15:03:28;12.90;87.20
46816;DHT22;32787;53.316;8.670;2023-03-31T15:06:00;12.80;87.60
46816;DHT22;32787;53.316;8.670;2023-03-31T15:08:28;12.80;87.60
46816;DHT22;32787;53.316;8.670;2023-03-31T15:10:59;12.60;87.40
46816;DHT22;32787;53.316;8.670;2023-03-31T15:13:33;12.50;88.00
46816;DHT22;32787;53.316;8.670;2023-03-31T15:16:17;12.50;88.00
46816;DHT22;32787;53.316;8.670;2023-03-31T15:18:43;12.30;88.20
46816;DHT22;32787;53.316;8.670;2023-03-31T15:21:25;12.00;89.10
46816;DHT22;32787;53.316;8.670;2023-03-31T15:23:54;11.90;89.70
46816;DHT22;32787;53.316;8.670;2023-03-31T15:26:24;11.90;90.20
46816;DHT22;32787;53.316;8.670;2023-03-31T15:28:53;11.90;90.90
46816;DHT22;32787;53.316;8.670;2023-03-31T15:31:20;11.80;91.40
46816;DHT22;32787;53.316;8.670;2023-03-31T15:33:46;12.20;91.60
46816;DHT22;32787;53.316;8.670;2023-03-31T15:36:12;12.20;91.30
46816;DHT22;32787;53.316;8.670;2023-03-31T15:38:39;12.00;91.40
46816;DHT22;32787;53.316;8.670;2023-03-31T15:41:15;12.20;91.30
46816;DHT22;32787;53.316;8.670;2023-03-31T15:43:44;12.20;91.00
46816;DHT22;32787;53.316;8.670;2023-03-31T15:46:19;12.10;90.30
46816;DHT22;32787;53.316;8.670;2023-03-31T15:48:55;12.10;90.60
46816;DHT22;32787;53.316;8.670;2023-03-31T15:53:52;12.30;91.10
46816;DHT22;32787;53.316;8.670;2023-03-31T15:56:42;12.50;90.20
46816;DHT22;32787;53.316;8.670;2023-03-31T15:59:24;12.80;90.30
46816;DHT22;32787;53.316;8.670;2023-03-31T16:01:53;13.20;89.50
46816;DHT22;32787;53.316;8.670;2023-03-31T16:04:20;13.20;88.40
46816;DHT22;32787;53.316;8.670;2023-03-31T16:06:50;13.20;88.20
46816;DHT22;32787;53.316;8.670;2023-03-31T16:12:35;13.20;88.00
46816;DHT22;32787;53.316;8.670;2023-03-31T16:17:39;12.70;87.90
46816;DHT22;32787;53.316;8.670;2023-03-31T16:20:32;12.50;87.50
46816;DHT22;32787;53.316;8.670;2023-03-31T16:22:58;12.40;87.90
46816;DHT22;32787;53.316;8.670;2023-03-31T16:25:26;12.40;88.30
46816;DHT22;32787;53.316;8.670;2023-03-31T16:27:55;12.30;88.60
46816;DHT22;32787;53.316;8.670;2023-03-31T16:30:38;12.30;88.70
46816;DHT22;32787;53.316;8.670;2023-03-31T16:33:05;12.20;89.00
46816;DHT22;32787;53.316;8.670;2023-03-31T16:35:36;12.20;89.50
46816;DHT22;32787;53.316;8.670;2023-03-31T16:38:06;12.30;89.50
46816;DHT22;32787;53.316;8.670;2023-03-31T16:40:41;12.30;89.60
46816;DHT22;32787;53.316;8.670;2023-03-31T16:43:09;12.30;89.40
46816;DHT22;32787;53.316;8.670;2023-03-31T16:45:34;12.40;88.90
46816;DHT22;32787;53.316;8.670;2023-03-31T16:48:01;12.20;88.30
46816;DHT22;32787;53.316;8.670;2023-03-31T16:50:27;12.20;88.50
46816;DHT22;32787;53.316;8.670;2023-03-31T16:52:52;12.10;88.80
46816;DHT22;32787;53.316;8.670;2023-03-31T16:55:18;12.30;88.50
46816;DHT22;32787;53.316;8.670;2023-03-31T16:57:43;12.30;88.60
46816;DHT22;32787;53.316;8.670;2023-03-31T17:00:09;12.10;87.90
46816;DHT22;32787;53.316;8.670;2023-03-31T17:02:36;11.80;88.50
46816;DHT22;32787;53.316;8.670;2023-03-31T17:05:01;11.80;89.10
46816;DHT22;32787;53.316;8.670;2023-03-31T17:07:27;11.70;89.40
46816;DHT22;32787;53.316;8.670;2023-03-31T17:09:53;11.70;89.40
46816;DHT22;32787;53.316;8.670;2023-03-31T17:12:18;11.80;89.80
46816;DHT22;32787;53.316;8.670;2023-03-31T17:14:44;11.80;89.20
46816;DHT22;32787;53.316;8.670;2023-03-31T17:17:09;11.70;89.30
46816;DHT22;32787;53.316;8.670;2023-03-31T17:19:35;11.70;89.40
46816;DHT22;32787;53.316;8.670;2023-03-31T17:22:01;11.60;89.20
46816;DHT22;32787;53.316;8.670;2023-03-31T17:24:28;11.50;89.30
46816;DHT22;32787;53.316;8.670;2023-03-31T17:26:53;11.50;89.60
46816;DHT22;32787;53.316;8.670;2023-03-31T17:29:19;11.50;89.20
46816;DHT22;32787;53.316;8.670;2023-03-31T17:31:44;11.40;89.60
46816;DHT22;32787;53.316;8.670;2023-03-31T17:34:10;11.30;89.60
46816;DHT22;32787;53.316;8.670;2023-03-31T17:36:36;11.30;89.90
46816;DHT22;32787;53.316;8.670;2023-03-31T17:39:02;11.30;89.80
46816;DHT22;32787;53.316;8.670;2023-03-31T17:41:29;11.30;89.90
46816;DHT22;32787;53.316;8.670;2023-03-31T17:43:56;11.30;89.70
46816;DHT22;32787;53.316;8.670;2023-03-31T17:46:22;11.30;89.80
46816;DHT22;32787;53.316;8.670;2023-03-31T17:48:48;11.20;89.40
46816;DHT22;32787;53.316;8.670;2023-03-31T17:51:17;11.20;89.40
46816;DHT22;32787;53.316;8.670;2023-03-31T17:53:43;11.20;89.50
46816;DHT22;32787;53.316;8.670;2023-03-31T17:56:10;11.30;89.30
46816;DHT22;32787;53.316;8.670;2023-03-31T17:58:36;11.20;89.30
46816;DHT22;32787;53.316;8.670;2023-03-31T18:01:06;11.10;89.50
46816;DHT22;32787;53.316;8.670;2023-03-31T18:03:32;11.00;89.70
46816;DHT22;32787;53.316;8.670;2023-03-31T18:06:03;11.00;89.80
46816;DHT22;32787;53.316;8.670;2023-03-31T18:08:29;11.10;89.70
46816;DHT22;32787;53.316;8.670;2023-03-31T18:10:54;11.00;89.70
46816;DHT22;32787;53.316;8.670;2023-03-31T18:13:20;11.00;89.70
46816;DHT22;32787;53.316;8.670;2023-03-31T18:15:48;11.00;89.80
46816;DHT22;32787;53.316;8.670;2023-03-31T18:18:15;11.00;89.70
46816;DHT22;32787;53.316;8.670;2023-03-31T18:20:43;11.10;89.80
46816;DHT22;32787;53.316;8.670;2023-03-31T18:23:09;11.10;89.60
46816;DHT22;32787;53.316;8.670;2023-03-31T18:25:35;11.10;89.50
46816;DHT22;32787;53.316;8.670;2023-03-31T18:28:00;10.90;89.80